Terminal Aerodrome Forecast
Issued by NWS Binghamton, NY

Home | Current Version | Previous Version | Text Only | Print | Product List | Glossary On
Versions: 1 2 3 4 5 6 7 8 9 10 11 12 13 14 15 16 17
893
FTUS41 KBGM 232334
TAFAVP
TAF
KAVP 232334Z 2400/2424 VRB03KT P6SM SKC
     FM241500 22008KT P6SM FEW070=

USA.gov is the U.S. government's official web portal to all federal, state and local government web resources and services.